Time;durP1;ratioP1;P1;durP2;ratioP2;P2;SDS_P1;SDS_P2;PMS_P1;PMS_P2;Temp;Humidity;BMP_temperature;BMP_pressure;BME280_temperature;BME280_humidity;BME280_pressure;Samples;Min_cycle;Max_cycle;Signal;HPM_P1;HPM_P2
2022/05/11 00:01:56;;;;;;;4.03;3.03;;;19.00;51.20;;;;;;5080664;28;20418;-69
2022/05/11 00:04:23;;;;;;;4.68;3.00;;;19.00;50.20;;;;;;5088689;28;20429;-69
2022/05/11 00:06:49;;;;;;;3.80;3.10;;;18.90;51.30;;;;;;5086484;28;20494;-69
2022/05/11 00:09:17;;;;;;;5.07;2.90;;;18.90;51.50;;;;;;5082047;28;20410;-70
2022/05/11 00:11:44;;;;;;;6.22;3.47;;;18.80;51.50;;;;;;5086218;28;20433;-71
2022/05/11 00:14:12;;;;;;;3.40;2.70;;;18.80;50.90;;;;;;5097741;28;20428;-68
2022/05/11 00:16:41;;;;;;;3.60;3.03;;;18.90;52.30;;;;;;5092996;28;20434;-69
2022/05/11 00:19:08;;;;;;;4.30;3.17;;;18.80;51.90;;;;;;5092829;28;20840;-69
2022/05/11 00:21:35;;;;;;;3.20;2.90;;;18.90;51.40;;;;;;5083272;28;21068;-69
2022/05/11 00:24:01;;;;;;;3.42;2.90;;;18.80;51.90;;;;;;5081904;28;20490;-71
2022/05/11 00:26:28;;;;;;;3.17;2.88;;;18.70;52.70;;;;;;5086958;28;20460;-69
2022/05/11 00:28:55;;;;;;;4.50;2.80;;;18.70;52.70;;;;;;5082993;28;20491;-70
2022/05/11 00:31:22;;;;;;;3.30;3.00;;;18.60;52.60;;;;;;5085721;28;20481;-69
2022/05/11 00:33:51;;;;;;;3.42;2.72;;;18.60;53.00;;;;;;5076830;28;20485;-70
2022/05/11 00:36:18;;;;;;;4.72;2.90;;;18.60;52.90;;;;;;5076230;28;20799;-69
2022/05/11 00:38:45;;;;;;;4.00;2.60;;;18.60;52.70;;;;;;5079570;28;20483;-68
2022/05/11 00:41:12;;;;;;;3.47;2.70;;;18.60;52.50;;;;;;5085248;28;20429;-69
2022/05/11 00:43:42;;;;;;;3.03;2.70;;;18.50;53.00;;;;;;5082730;28;20519;-70
2022/05/11 00:46:15;;;;;;;3.95;2.70;;;18.50;52.70;;;;;;5088885;28;20437;-70
2022/05/11 00:51:43;;;;;;;3.65;2.50;;;18.50;52.90;;;;;;5073450;28;20625;-70
2022/05/11 00:54:11;;;;;;;4.40;2.60;;;18.40;52.60;;;;;;5081080;28;20847;-69
2022/05/11 00:56:43;;;;;;;3.23;2.50;;;18.40;52.60;;;;;;5079430;28;20443;-69
2022/05/11 00:59:13;;;;;;;2.90;2.47;;;18.40;52.30;;;;;;5086588;28;20425;-70
2022/05/11 01:01:42;;;;;;;4.28;2.65;;;18.30;52.60;;;;;;5088316;28;20913;-69
2022/05/11 01:04:11;;;;;;;3.03;2.75;;;18.40;53.20;;;;;;5102839;28;20410;-69
2022/05/11 01:06:41;;;;;;;4.00;2.90;;;18.30;53.20;;;;;;5101502;28;20431;-69
2022/05/11 01:09:08;;;;;;;3.58;2.50;;;18.30;53.10;;;;;;5105504;28;20414;-70
2022/05/11 01:11:39;;;;;;;3.45;2.58;;;18.40;52.20;;;;;;5094124;28;20432;-68
2022/05/11 01:14:06;;;;;;;4.35;2.70;;;18.30;52.80;;;;;;5091861;28;20437;-69
2022/05/11 01:16:34;;;;;;;4.22;2.53;;;18.30;53.40;;;;;;5079892;28;20431;-69
2022/05/11 01:19:01;;;;;;;4.40;2.80;;;18.30;53.40;;;;;;5084682;28;20437;-68
2022/05/11 01:21:39;;;;;;;4.00;2.70;;;18.30;52.80;;;;;;5086726;28;20425;-68
2022/05/11 01:24:32;;;;;;;3.45;2.55;;;18.20;53.60;;;;;;5086011;28;20418;-70
2022/05/11 01:26:59;;;;;;;3.78;2.60;;;18.20;53.60;;;;;;5081588;28;20429;-70
2022/05/11 01:29:25;;;;;;;3.45;2.90;;;18.20;53.80;;;;;;5080650;28;20478;-70
2022/05/11 01:31:52;;;;;;;3.30;2.80;;;18.20;53.50;;;;;;5078471;28;20426;-70
2022/05/11 01:34:23;;;;;;;4.43;2.80;;;18.20;53.80;;;;;;5090401;28;20421;-68
2022/05/11 01:36:54;;;;;;;3.80;2.60;;;18.30;54.20;;;;;;5076932;28;20434;-69
2022/05/11 01:39:21;;;;;;;4.32;2.88;;;18.30;54.30;;;;;;5081683;28;20433;-69
2022/05/11 01:41:54;;;;;;;4.30;3.00;;;18.30;54.30;;;;;;5076725;28;20513;-69
2022/05/11 01:44:22;;;;;;;4.00;3.10;;;18.40;54.40;;;;;;5078571;28;20489;-69
2022/05/11 01:46:54;;;;;;;5.30;3.10;;;18.40;54.80;;;;;;5082474;28;20434;-67
2022/05/11 01:49:24;;;;;;;3.70;3.10;;;18.40;54.10;;;;;;5083690;28;20730;-70
2022/05/11 01:51:51;;;;;;;4.25;2.78;;;18.30;53.40;;;;;;5080496;28;21077;-70
2022/05/11 01:54:17;;;;;;;3.63;3.20;;;18.40;53.90;;;;;;5085220;28;20431;-70
2022/05/11 01:56:44;;;;;;;3.78;3.38;;;18.30;53.70;;;;;;5093371;28;20901;-70
2022/05/11 01:59:12;;;;;;;5.25;3.70;;;18.30;53.90;;;;;;5099249;28;20448;-68
2022/05/11 02:01:41;;;;;;;4.00;3.60;;;18.20;54.10;;;;;;5103087;28;20418;-70
2022/05/11 02:07:49;;;;;;;5.35;3.50;;;18.20;54.10;;;;;;5108292;28;20438;-70
2022/05/11 02:09:41;;;;;;;4.93;3.70;;;18.10;54.30;;;;;;5096602;28;20546;-69
2022/05/11 02:12:09;;;;;;;4.70;4.20;;;18.10;55.70;;;;;;5082161;28;20431;-69
2022/05/11 02:14:37;;;;;;;4.40;4.00;;;18.10;55.20;;;;;;5099170;28;20500;-70
2022/05/11 02:17:05;;;;;;;4.95;4.07;;;18.00;56.30;;;;;;5091997;28;20943;-69
2022/05/11 02:19:31;;;;;;;4.47;4.07;;;18.00;56.70;;;;;;5103770;28;20400;-70
2022/05/11 02:21:58;;;;;;;4.20;3.55;;;18.00;56.00;;;;;;5085475;28;20419;-69
2022/05/11 02:24:25;;;;;;;4.60;3.88;;;18.00;55.90;;;;;;5089136;28;20477;-69
2022/05/11 02:27:01;;;;;;;4.85;4.00;;;18.00;56.20;;;;;;5095169;28;20449;-70
2022/05/11 02:29:28;;;;;;;4.83;4.27;;;18.00;56.90;;;;;;5119782;28;20420;-69
2022/05/11 02:31:56;;;;;;;4.75;4.32;;;17.90;56.10;;;;;;5086119;28;20427;-69
2022/05/11 02:37:07;;;;;;;5.07;4.03;;;17.80;57.00;;;;;;5081740;28;20421;-69
2022/05/11 02:39:34;;;;;;;4.72;4.00;;;17.80;57.20;;;;;;5088890;28;20420;-68
2022/05/11 02:42:00;;;;;;;4.13;3.65;;;17.80;58.20;;;;;;5080407;28;20425;-68
2022/05/11 02:44:27;;;;;;;4.70;4.30;;;17.80;57.70;;;;;;5095205;28;20410;-68
2022/05/11 02:46:55;;;;;;;7.10;4.10;;;17.70;57.80;;;;;;5088639;28;20479;-68
2022/05/11 02:49:22;;;;;;;5.03;3.88;;;17.70;57.70;;;;;;5105823;28;20444;-68
2022/05/11 02:51:49;;;;;;;4.82;4.32;;;17.70;58.80;;;;;;5088778;28;20422;-68
2022/05/11 02:54:16;;;;;;;5.65;3.97;;;17.70;58.10;;;;;;5102157;28;20409;-69
2022/05/11 02:56:42;;;;;;;4.28;3.97;;;17.60;58.10;;;;;;5114306;28;20424;-67
2022/05/11 02:59:09;;;;;;;4.32;3.80;;;17.70;58.70;;;;;;5109805;28;20441;-70
2022/05/11 03:01:36;;;;;;;4.70;4.30;;;17.60;59.20;;;;;;5117105;28;20420;-69
2022/05/11 03:04:04;;;;;;;4.63;4.10;;;17.60;59.20;;;;;;5116911;28;20426;-70
2022/05/11 03:06:30;;;;;;;5.10;3.95;;;17.60;59.50;;;;;;5134762;22;20487;-66
2022/05/11 03:08:57;;;;;;;4.40;4.00;;;17.60;59.80;;;;;;5112799;27;20407;-65
2022/05/11 03:11:24;;;;;;;4.40;4.00;;;17.50;59.90;;;;;;5116641;27;20428;-67
2022/05/11 03:13:51;;;;;;;5.30;4.20;;;17.50;60.00;;;;;;5117579;27;20412;-67
2022/05/11 03:16:17;;;;;;;5.10;4.50;;;17.50;60.50;;;;;;5111600;27;20750;-65
2022/05/11 03:18:44;;;;;;;6.30;4.30;;;17.50;60.20;;;;;;5121467;27;20933;-67
2022/05/11 03:21:12;;;;;;;4.68;4.15;;;17.40;60.10;;;;;;5122312;27;20453;-66
2022/05/11 03:23:39;;;;;;;5.00;4.40;;;17.40;59.40;;;;;;5126028;27;20537;-65
2022/05/11 03:26:06;;;;;;;5.35;4.10;;;17.30;60.00;;;;;;5117328;27;20424;-67
2022/05/11 03:28:32;;;;;;;6.40;4.90;;;17.30;59.50;;;;;;5125320;27;20426;-67
2022/05/11 03:30:59;;;;;;;5.40;4.18;;;17.30;59.50;;;;;;5117541;27;20423;-66
2022/05/11 03:36:11;;;;;;;4.57;4.18;;;17.20;59.80;;;;;;5119969;27;20937;-64
2022/05/11 03:38:38;;;;;;;5.15;4.60;;;17.20;59.90;;;;;;5125962;27;20471;-66
2022/05/11 03:41:05;;;;;;;5.03;4.63;;;17.20;60.00;;;;;;5125192;27;20486;-66
2022/05/11 03:43:31;;;;;;;4.82;4.43;;;17.10;59.60;;;;;;5123628;27;20528;-66
2022/05/11 03:45:59;;;;;;;5.53;4.88;;;17.10;60.30;;;;;;5124135;27;20426;-66
2022/05/11 03:48:26;;;;;;;5.45;4.40;;;17.10;60.20;;;;;;5118696;27;20914;-66
2022/05/11 03:50:53;;;;;;;7.30;4.80;;;17.00;60.10;;;;;;5121981;27;20471;-65
2022/05/11 03:53:21;;;;;;;4.78;4.30;;;17.00;60.10;;;;;;5117953;27;20414;-67
2022/05/11 03:55:48;;;;;;;5.88;4.82;;;17.00;60.70;;;;;;5124260;27;20464;-65
2022/05/11 03:58:14;;;;;;;7.50;4.93;;;16.90;60.60;;;;;;5115922;27;20555;-67
2022/05/11 04:00:42;;;;;;;4.90;4.50;;;16.90;60.50;;;;;;5119782;27;20517;-67
2022/05/11 04:03:08;;;;;;;5.78;4.75;;;16.90;60.70;;;;;;5117099;27;20426;-67
2022/05/11 04:05:35;;;;;;;6.82;5.38;;;16.90;61.80;;;;;;5118150;27;20412;-65
2022/05/11 04:08:02;;;;;;;5.00;4.50;;;16.90;61.00;;;;;;5119212;27;21132;-66
2022/05/11 04:10:30;;;;;;;6.13;5.25;;;16.90;61.70;;;;;;5123347;27;20523;-65
2022/05/11 04:12:58;;;;;;;6.05;5.13;;;16.90;60.80;;;;;;5116348;27;20419;-65
2022/05/11 04:15:25;;;;;;;6.85;5.30;;;16.90;61.20;;;;;;5116157;27;20428;-65
2022/05/11 04:17:51;;;;;;;5.70;5.20;;;16.90;61.50;;;;;;5123189;27;20430;-66
2022/05/11 04:20:20;;;;;;;6.03;5.43;;;16.90;61.90;;;;;;5121147;27;20427;-67
2022/05/11 04:22:47;;;;;;;6.75;5.05;;;16.90;62.00;;;;;;5120234;27;20546;-66
2022/05/11 04:25:15;;;;;;;7.57;5.10;;;16.80;62.90;;;;;;5114618;27;20437;-69
2022/05/11 04:27:44;;;;;;;6.10;5.13;;;16.90;62.80;;;;;;5122779;27;20426;-70
2022/05/11 04:30:12;;;;;;;6.27;5.50;;;16.90;63.00;;;;;;5125540;27;20422;-70
2022/05/11 04:32:39;;;;;;;5.72;5.22;;;16.90;63.00;;;;;;5121316;27;20429;-70
2022/05/11 04:35:07;;;;;;;6.65;6.00;;;16.90;63.00;;;;;;5117738;27;20538;-65
2022/05/11 04:37:34;;;;;;;7.30;5.70;;;16.90;63.00;;;;;;5113913;27;20502;-66
2022/05/11 04:40:00;;;;;;;6.55;5.95;;;16.80;63.20;;;;;;5117950;27;20581;-66
2022/05/11 04:42:27;;;;;;;6.93;5.18;;;16.80;63.40;;;;;;5121016;27;20795;-65
2022/05/11 04:44:55;;;;;;;7.05;5.80;;;16.80;63.50;;;;;;5121596;27;20836;-72
2022/05/11 04:47:22;;;;;;;6.90;6.20;;;16.80;63.70;;;;;;5120537;27;20747;-73
2022/05/11 04:49:53;;;;;;;6.10;5.50;;;16.80;64.10;;;;;;5121006;27;20438;-72
2022/05/11 04:52:19;;;;;;;7.68;6.50;;;16.80;64.70;;;;;;5121501;27;20492;-72
2022/05/11 04:54:48;;;;;;;7.53;6.60;;;16.70;64.80;;;;;;5122073;27;20422;-74
2022/05/11 04:57:16;;;;;;;7.28;6.10;;;16.70;64.90;;;;;;5119110;28;20504;-75
2022/05/11 04:59:42;;;;;;;7.18;6.47;;;16.70;65.10;;;;;;5116549;27;20426;-73
2022/05/11 05:02:16;;;;;;;7.57;6.78;;;16.70;64.90;;;;;;5118104;28;20455;-65
2022/05/11 05:04:43;;;;;;;8.82;6.97;;;16.70;65.00;;;;;;5123135;28;20421;-64
2022/05/11 05:07:10;;;;;;;8.52;7.03;;;16.70;65.80;;;;;;5119869;28;20446;-65
2022/05/11 05:09:37;;;;;;;9.77;6.30;;;16.70;65.70;;;;;;5116235;28;20445;-64
2022/05/11 05:12:04;;;;;;;7.82;7.07;;;16.70;65.70;;;;;;5110534;27;20514;-65
2022/05/11 05:14:31;;;;;;;8.40;6.85;;;16.70;65.40;;;;;;5119975;27;20422;-64
2022/05/11 05:17:01;;;;;;;8.85;8.05;;;16.80;65.30;;;;;;5120187;28;20430;-64
2022/05/11 05:19:29;;;;;;;10.18;7.90;;;16.80;65.20;;;;;;5122748;28;20445;-64
2022/05/11 05:21:57;;;;;;;11.07;8.82;;;16.80;65.50;;;;;;5117163;27;20817;-65
2022/05/11 05:24:24;;;;;;;8.80;8.00;;;16.80;66.00;;;;;;5114727;28;20522;-65
2022/05/11 05:26:51;;;;;;;10.17;8.90;;;16.80;65.40;;;;;;5112217;28;20495;-64
2022/05/11 05:32:02;;;;;;;8.73;7.85;;;16.90;65.00;;;;;;5115434;27;20528;-63
2022/05/11 05:34:31;;;;;;;8.50;7.80;;;17.00;65.00;;;;;;5125633;27;20470;-64
2022/05/11 05:36:57;;;;;;;9.48;8.57;;;17.00;64.40;;;;;;5124461;27;20443;-63
2022/05/11 05:39:24;;;;;;;8.93;8.02;;;17.10;63.80;;;;;;5119193;27;21394;-64
2022/05/11 05:41:52;;;;;;;8.60;7.80;;;17.20;63.50;;;;;;5125101;27;21304;-64
2022/05/11 05:44:18;;;;;;;8.52;7.65;;;17.30;63.30;;;;;;5124765;27;20426;-64
2022/05/11 05:46:46;;;;;;;12.30;8.40;;;17.30;62.50;;;;;;5115783;27;20508;-64
2022/05/11 05:49:14;;;;;;;8.10;7.40;;;17.40;62.70;;;;;;5124809;27;20891;-65
2022/05/11 05:51:42;;;;;;;7.75;7.00;;;17.40;62.70;;;;;;5121147;27;20426;-67
2022/05/11 05:54:09;;;;;;;7.53;6.83;;;17.50;62.80;;;;;;5120231;27;21049;-67
2022/05/11 05:56:36;;;;;;;8.20;7.30;;;17.50;63.10;;;;;;5124137;27;20433;-67
2022/05/11 05:59:05;;;;;;;8.30;7.43;;;17.50;63.30;;;;;;5124927;27;20422;-66
2022/05/11 06:01:32;;;;;;;8.15;7.13;;;17.60;62.90;;;;;;5120314;27;20437;-66
2022/05/11 06:03:59;;;;;;;7.47;6.72;;;17.70;61.40;;;;;;5114272;27;20434;-68
2022/05/11 06:06:26;;;;;;;7.10;6.40;;;17.80;61.90;;;;;;5125785;27;20458;-67
2022/05/11 06:08:54;;;;;;;7.20;6.50;;;17.80;61.40;;;;;;5124685;27;20484;-68
2022/05/11 06:11:21;;;;;;;7.20;6.50;;;17.90;61.20;;;;;;5123709;27;20414;-67
2022/05/11 06:13:47;;;;;;;7.85;6.80;;;18.00;61.30;;;;;;5124917;27;20508;-67
2022/05/11 06:16:16;;;;;;;7.15;6.57;;;18.10;61.20;;;;;;5121175;27;20922;-68
2022/05/11 06:18:45;;;;;;;7.78;6.90;;;18.20;60.00;;;;;;5124960;27;20451;-68
2022/05/11 06:21:13;;;;;;;8.70;7.10;;;18.30;60.60;;;;;;5120289;27;20487;-68
2022/05/11 06:23:40;;;;;;;7.43;6.63;;;18.40;59.90;;;;;;5125372;27;20475;-68
2022/05/11 06:26:09;;;;;;;8.82;6.50;;;18.40;59.20;;;;;;5127864;27;20418;-67
2022/05/11 06:28:37;;;;;;;7.15;6.45;;;18.60;58.80;;;;;;5125411;27;20540;-67
2022/05/11 06:31:04;;;;;;;6.60;6.00;;;18.70;58.40;;;;;;5127294;27;20407;-68
2022/05/11 06:33:32;;;;;;;7.93;6.30;;;18.80;58.60;;;;;;5125587;27;20422;-67
2022/05/11 06:35:58;;;;;;;6.30;5.70;;;18.90;57.80;;;;;;5127045;27;20484;-67
2022/05/11 06:38:25;;;;;;;6.80;6.20;;;19.00;57.50;;;;;;5127790;27;20414;-68
2022/05/11 06:40:52;;;;;;;6.43;5.80;;;19.10;56.60;;;;;;5114300;27;20469;-69
2022/05/11 06:43:20;;;;;;;6.70;6.00;;;19.30;56.10;;;;;;5113949;27;20801;-67
2022/05/11 06:45:46;;;;;;;6.53;5.80;;;19.40;56.40;;;;;;5120665;27;20489;-68
2022/05/11 06:48:14;;;;;;;7.38;6.38;;;19.50;55.80;;;;;;5121156;27;20464;-67
2022/05/11 06:50:41;;;;;;;6.50;5.88;;;19.60;55.00;;;;;;5126852;27;20488;-68
2022/05/11 06:53:10;;;;;;;6.20;5.60;;;19.80;54.60;;;;;;5124049;27;20801;-67
2022/05/11 07:01:09;;;;;;;5.55;4.28;;;20.30;50.70;;;;;;5115172;27;20479;-69
2022/05/11 07:03:35;;;;;;;4.88;4.25;;;20.40;49.80;;;;;;5126835;27;20423;-67
2022/05/11 07:06:02;;;;;;;7.80;4.10;;;20.50;48.40;;;;;;5123389;27;20483;-67
2022/05/11 07:08:34;;;;;;;5.43;3.70;;;20.60;48.20;;;;;;5126544;27;20434;-68
2022/05/11 07:13:45;;;;;;;4.85;3.90;;;20.70;47.60;;;;;;5125644;27;20386;-68
2022/05/11 07:16:12;;;;;;;5.13;4.30;;;20.80;47.60;;;;;;5121586;27;20451;-67
2022/05/11 07:18:39;;;;;;;5.32;4.82;;;20.90;47.20;;;;;;5114876;27;20486;-69
2022/05/11 07:21:06;;;;;;;7.43;4.60;;;20.90;47.10;;;;;;5126710;27;20734;-68
2022/05/11 07:23:32;;;;;;;6.10;4.70;;;21.00;47.10;;;;;;5124079;27;20463;-67
2022/05/11 07:25:59;;;;;;;5.57;4.13;;;21.20;47.10;;;;;;5125919;27;20453;-67
2022/05/11 07:28:26;;;;;;;4.75;4.10;;;21.30;46.50;;;;;;5125931;27;20495;-67
2022/05/11 07:30:54;;;;;;;5.00;4.00;;;21.50;47.00;;;;;;5118999;27;21029;-67
2022/05/11 07:33:21;;;;;;;5.15;4.20;;;21.50;45.90;;;;;;5126078;27;20698;-67
2022/05/11 07:35:48;;;;;;;5.78;3.80;;;21.50;46.10;;;;;;5124982;27;20430;-70
2022/05/11 07:38:17;;;;;;;3.97;3.67;;;21.70;46.30;;;;;;5126044;27;20539;-68
2022/05/11 07:40:45;;;;;;;4.85;4.45;;;21.80;46.00;;;;;;5125950;27;20493;-68
2022/05/11 07:43:12;;;;;;;4.75;4.32;;;22.00;45.30;;;;;;5124571;27;20490;-68
2022/05/11 07:45:40;;;;;;;4.55;4.13;;;22.10;44.90;;;;;;5123558;27;20430;-68
2022/05/11 07:48:09;;;;;;;4.15;3.78;;;22.10;44.70;;;;;;5118260;27;20526;-68
2022/05/11 07:50:36;;;;;;;4.20;3.30;;;22.00;45.40;;;;;;5125426;27;20419;-69
2022/05/11 07:53:04;;;;;;;3.88;3.58;;;22.20;45.00;;;;;;5125217;27;20514;-67
2022/05/11 07:55:33;;;;;;;4.57;3.75;;;22.40;45.00;;;;;;5124471;27;20440;-69
2022/05/11 08:00:44;;;;;;;4.50;3.80;;;22.90;43.20;;;;;;5122404;27;20475;-67
2022/05/11 08:03:12;;;;;;;4.28;3.50;;;23.20;42.80;;;;;;5125620;27;20506;-68
2022/05/11 08:05:39;;;;;;;5.65;4.03;;;23.50;42.70;;;;;;5118428;27;20476;-67
2022/05/11 08:08:08;;;;;;;6.32;3.15;;;23.60;41.50;;;;;;5125276;27;20506;-68
2022/05/11 08:10:38;;;;;;;3.42;3.13;;;23.50;41.20;;;;;;5124527;27;20490;-67
2022/05/11 08:13:07;;;;;;;5.82;3.70;;;23.30;41.60;;;;;;5124056;27;20473;-68
2022/05/11 08:15:35;;;;;;;4.70;3.50;;;23.30;42.20;;;;;;5124599;27;21222;-68
2022/05/11 08:18:04;;;;;;;4.43;3.30;;;23.50;41.50;;;;;;5124520;27;20952;-67
2022/05/11 08:20:34;;;;;;;5.05;3.80;;;23.70;41.00;;;;;;5125434;27;20433;-67
2022/05/11 08:23:04;;;;;;;3.80;3.45;;;23.90;40.30;;;;;;5112315;27;20423;-67
2022/05/11 08:25:33;;;;;;;3.80;3.50;;;24.00;40.20;;;;;;5123313;27;20465;-68
2022/05/11 08:28:02;;;;;;;3.95;3.20;;;23.90;40.50;;;;;;5123669;27;20430;-68
2022/05/11 08:33:26;;;;;;;5.47;3.50;;;23.80;40.60;;;;;;5124894;27;20409;-68
2022/05/11 08:35:56;;;;;;;5.25;3.60;;;23.80;40.60;;;;;;5124802;27;20491;-68
2022/05/11 08:38:25;;;;;;;4.75;3.20;;;23.70;40.60;;;;;;5122996;27;20510;-68
2022/05/11 08:40:56;;;;;;;3.50;3.13;;;23.90;40.50;;;;;;5124872;27;20414;-67
2022/05/11 08:43:23;;;;;;;5.35;3.72;;;24.00;40.50;;;;;;5123236;27;20517;-68
2022/05/11 08:45:54;;;;;;;3.90;3.50;;;24.20;40.30;;;;;;5113357;27;20431;-68
2022/05/11 08:48:30;;;;;;;5.83;3.40;;;24.50;39.30;;;;;;5122100;27;20504;-68
2022/05/11 08:50:59;;;;;;;5.88;4.10;;;24.70;39.20;;;;;;5112010;27;21909;-67
2022/05/11 08:53:35;;;;;;;5.45;3.70;;;25.00;38.10;;;;;;5119952;27;20448;-68
2022/05/11 08:56:10;;;;;;;5.07;3.70;;;25.30;38.90;;;;;;5117004;27;20493;-68
2022/05/11 08:58:42;;;;;;;5.45;3.97;;;25.70;37.90;;;;;;5118475;28;20414;-67
2022/05/11 09:01:16;;;;;;;5.65;4.10;;;25.40;37.20;;;;;;5124866;28;20423;-66
2022/05/11 09:03:45;;;;;;;4.83;3.60;;;25.00;38.40;;;;;;5121276;27;20447;-68
2022/05/11 09:06:18;;;;;;;4.43;3.92;;;25.00;38.50;;;;;;5122726;27;20928;-67
2022/05/11 09:08:45;;;;;;;6.00;3.77;;;25.00;38.60;;;;;;5128066;27;20430;-68
2022/05/11 09:11:16;;;;;;;4.70;3.58;;;25.30;38.40;;;;;;5128998;27;20491;-66
2022/05/11 09:13:44;;;;;;;4.43;3.60;;;25.60;38.20;;;;;;5128229;27;20430;-69
2022/05/11 09:16:19;;;;;;;4.43;3.70;;;25.70;37.40;;;;;;5128226;27;20426;-68
2022/05/11 09:18:45;;;;;;;4.75;4.28;;;26.10;37.40;;;;;;5115155;27;20434;-69
2022/05/11 09:21:24;;;;;;;5.67;3.90;;;25.70;37.10;;;;;;5126089;27;20422;-68
2022/05/11 09:24:02;;;;;;;6.70;4.10;;;25.50;37.80;;;;;;5120305;27;20418;-67
2022/05/11 09:26:32;;;;;;;5.07;4.00;;;25.50;37.60;;;;;;5128254;27;20485;-67
2022/05/11 09:29:16;;;;;;;5.38;4.13;;;25.40;38.40;;;;;;5128396;27;20432;-67
2022/05/11 09:31:43;;;;;;;4.25;3.85;;;25.50;39.10;;;;;;5115149;27;20406;-66
2022/05/11 09:34:14;;;;;;;4.15;3.75;;;25.80;38.00;;;;;;5127238;27;20422;-68
2022/05/11 09:36:52;;;;;;;5.53;3.75;;;26.20;37.40;;;;;;5123274;27;20430;-67
2022/05/11 09:39:19;;;;;;;5.07;3.80;;;26.60;36.60;;;;;;5118344;27;20426;-67
2022/05/11 09:41:49;;;;;;;4.75;3.90;;;27.00;35.70;;;;;;5128332;27;20426;-67
2022/05/11 09:44:22;;;;;;;7.60;3.88;;;26.90;35.40;;;;;;5128546;27;20418;-67
2022/05/11 09:46:49;;;;;;;4.13;3.72;;;26.70;35.80;;;;;;5132980;27;20448;-67
2022/05/11 09:49:26;;;;;;;4.88;4.43;;;26.70;35.70;;;;;;5128539;27;20406;-67
2022/05/11 09:51:57;;;;;;;6.10;4.50;;;26.60;36.70;;;;;;5123007;27;20456;-66
2022/05/11 09:54:29;;;;;;;5.53;3.90;;;26.70;36.00;;;;;;5127067;27;20422;-68
2022/05/11 09:56:59;;;;;;;6.03;3.90;;;26.80;35.60;;;;;;5123755;27;20402;-67
2022/05/11 09:59:29;;;;;;;6.17;3.80;;;27.00;35.20;;;;;;5128244;27;20446;-68
2022/05/11 10:02:21;;;;;;;4.95;4.07;;;26.60;36.40;;;;;;5118004;27;20422;-68
2022/05/11 10:04:53;;;;;;;4.50;3.92;;;26.70;37.10;;;;;;5125687;27;20454;-68
2022/05/11 10:07:23;;;;;;;4.20;3.70;;;26.90;35.40;;;;;;5125277;27;20483;-67
2022/05/11 10:09:54;;;;;;;4.20;3.90;;;27.00;35.50;;;;;;5127138;27;20506;-67
2022/05/11 10:12:27;;;;;;;4.80;3.50;;;27.30;35.10;;;;;;5127865;27;20429;-68
2022/05/11 10:23:30;;;;;;;4.97;3.40;;;27.50;34.00;;;;;;5122619;27;20484;-67
2022/05/11 10:26:02;;;;;;;6.03;3.90;;;27.40;35.00;;;;;;5118957;27;20425;-68
2022/05/11 10:28:39;;;;;;;5.20;3.80;;;27.60;34.00;;;;;;5126134;27;20422;-68
2022/05/11 10:31:12;;;;;;;3.42;3.13;;;27.70;34.10;;;;;;5124065;27;20864;-68
2022/05/11 10:34:00;;;;;;;3.83;3.53;;;28.00;33.40;;;;;;5126781;27;20423;-67
2022/05/11 10:36:34;;;;;;;3.60;3.30;;;28.10;32.90;;;;;;5125630;27;20525;-67
2022/05/11 10:39:16;;;;;;;3.90;3.50;;;27.60;33.40;;;;;;5125719;27;21029;-68
2022/05/11 10:41:51;;;;;;;5.22;3.65;;;27.50;34.10;;;;;;5126948;27;20413;-67
2022/05/11 10:44:34;;;;;;;4.30;3.08;;;27.60;34.30;;;;;;5124474;27;20478;-67
2022/05/11 10:47:13;;;;;;;5.00;3.15;;;28.30;33.80;;;;;;5124137;27;20445;-68
2022/05/11 10:49:59;;;;;;;3.60;3.30;;;29.30;32.90;;;;;;5125374;27;20517;-67
2022/05/11 10:52:38;;;;;;;3.80;3.40;;;29.60;30.90;;;;;;5123734;27;20913;-66
2022/05/11 10:55:25;;;;;;;3.95;3.30;;;28.70;31.50;;;;;;5127386;27;20466;-67
2022/05/11 10:58:09;;;;;;;4.28;3.35;;;28.50;32.70;;;;;;5125679;27;20434;-67
2022/05/11 11:00:43;;;;;;;4.65;3.22;;;28.90;31.70;;;;;;5118046;27;20453;-68
2022/05/11 11:03:48;;;;;;;4.63;3.50;;;28.80;31.50;;;;;;5126005;27;20981;-67
2022/05/11 11:09:23;;;;;;;4.45;3.40;;;28.50;32.00;;;;;;5121631;27;20660;-68
2022/05/11 11:11:57;;;;;;;4.28;3.10;;;28.60;31.90;;;;;;5126984;27;20523;-67
2022/05/11 11:14:28;;;;;;;4.32;3.80;;;28.90;31.30;;;;;;5125654;27;20898;-67
2022/05/11 11:16:56;;;;;;;3.30;3.00;;;28.70;32.00;;;;;;5124516;27;20578;-67
2022/05/11 11:19:24;;;;;;;5.65;3.90;;;28.80;32.60;;;;;;5126623;27;20479;-66
2022/05/11 11:21:51;;;;;;;5.50;3.70;;;28.70;31.50;;;;;;5125766;27;20441;-66
2022/05/11 11:24:23;;;;;;;5.63;3.53;;;28.50;32.10;;;;;;5124825;27;20529;-67
2022/05/11 11:26:54;;;;;;;3.40;3.00;;;28.40;32.70;;;;;;5123565;27;20521;-67
2022/05/11 11:29:24;;;;;;;7.47;3.42;;;28.90;32.80;;;;;;5121267;27;20829;-66
2022/05/11 11:32:09;;;;;;;3.88;2.90;;;29.30;31.80;;;;;;5126599;27;20407;-68
2022/05/11 11:34:38;;;;;;;4.85;3.40;;;29.60;30.70;;;;;;5125037;27;20514;-68
2022/05/11 11:37:47;;;;;;;4.10;2.90;;;29.50;30.90;;;;;;5123638;27;20522;-68
2022/05/11 11:40:25;;;;;;;3.50;3.20;;;29.70;30.50;;;;;;5119589;27;20418;-67
2022/05/11 11:42:53;;;;;;;3.65;3.08;;;29.60;30.00;;;;;;5115293;27;20554;-68
2022/05/11 11:45:54;;;;;;;3.33;2.70;;;29.30;30.90;;;;;;5126130;27;20924;-67
2022/05/11 11:48:24;;;;;;;4.15;3.50;;;29.40;31.40;;;;;;5110659;27;20462;-66
2022/05/11 11:50:54;;;;;;;3.30;3.00;;;29.70;31.20;;;;;;5116995;27;20913;-69
2022/05/11 11:53:27;;;;;;;5.27;3.07;;;29.90;29.90;;;;;;5125436;27;20441;-66
2022/05/11 11:55:53;;;;;;;3.90;3.20;;;29.40;30.80;;;;;;5159047;22;20555;-72
2022/05/11 11:58:31;;;;;;;4.00;3.30;;;29.10;31.20;;;;;;5075057;28;20437;-73
2022/05/11 12:01:06;;;;;;;5.45;3.10;;;29.10;31.90;;;;;;5080315;28;20794;-72
2022/05/11 12:03:38;;;;;;;7.53;4.10;;;29.30;31.80;;;;;;5083225;28;20430;-73
2022/05/11 12:17:28;;;;;;;3.43;2.40;;;31.10;30.00;;;;;;5076987;28;20427;-72
2022/05/11 12:20:01;;;;;;;3.47;3.05;;;31.40;29.40;;;;;;5083911;28;20911;-72
2022/05/11 12:22:31;;;;;;;4.00;3.10;;;31.00;28.80;;;;;;5087819;28;20516;-71
2022/05/11 12:25:01;;;;;;;3.75;2.95;;;30.40;30.40;;;;;;5085756;28;20430;-72
2022/05/11 12:27:31;;;;;;;3.63;3.00;;;30.30;29.70;;;;;;5082198;28;20462;-71
2022/05/11 12:30:02;;;;;;;5.63;3.30;;;30.20;30.00;;;;;;5085871;28;20432;-71
2022/05/11 12:32:30;;;;;;;6.80;3.40;;;30.30;30.50;;;;;;5079476;28;20419;-71
2022/05/11 12:34:58;;;;;;;4.20;2.90;;;30.20;29.60;;;;;;5085622;28;20430;-71
2022/05/11 12:37:28;;;;;;;3.83;3.00;;;30.10;30.10;;;;;;5075061;28;20448;-71
2022/05/11 12:39:56;;;;;;;4.90;3.22;;;30.40;30.30;;;;;;5081509;28;20419;-71
2022/05/11 12:42:31;;;;;;;5.10;3.20;;;30.50;30.40;;;;;;5078736;28;21139;-72
2022/05/11 12:44:59;;;;;;;3.55;3.25;;;30.60;29.50;;;;;;5078166;28;20931;-69
2022/05/11 12:47:27;;;;;;;5.35;3.00;;;30.30;29.60;;;;;;5077188;28;21582;-70
2022/05/11 12:49:54;;;;;;;3.80;3.10;;;30.20;29.60;;;;;;5078217;28;20774;-70
2022/05/11 12:52:24;;;;;;;5.03;2.90;;;29.80;30.20;;;;;;5070226;28;20421;-70
2022/05/11 12:55:03;;;;;;;3.53;3.10;;;29.80;30.40;;;;;;5079209;28;20425;-70
2022/05/11 12:57:39;;;;;;;6.72;3.20;;;30.20;30.40;;;;;;5065588;28;20431;-70
2022/05/11 13:00:15;;;;;;;4.03;2.83;;;30.50;29.50;;;;;;5066150;28;20430;-70
2022/05/11 13:02:44;;;;;;;3.10;2.80;;;30.50;29.50;;;;;;5064521;28;20804;-68
2022/05/11 13:05:15;;;;;;;5.00;2.90;;;30.20;30.00;;;;;;5067038;28;20423;-68
2022/05/11 13:07:47;;;;;;;3.83;2.90;;;29.90;30.00;;;;;;5067503;28;20482;-69
2022/05/11 13:10:17;;;;;;;4.10;2.60;;;29.70;30.50;;;;;;5062516;28;20884;-68
2022/05/11 13:12:50;;;;;;;3.35;2.90;;;29.80;31.30;;;;;;5071244;28;20857;-68
2022/05/11 13:15:33;;;;;;;5.78;2.72;;;30.10;29.90;;;;;;5064400;28;20463;-70
2022/05/11 13:18:00;;;;;;;4.50;2.60;;;29.90;29.80;;;;;;5062785;28;20485;-70
2022/05/11 13:20:28;;;;;;;3.10;2.80;;;30.00;31.40;;;;;;5070283;28;20430;-67
2022/05/11 13:22:58;;;;;;;6.07;2.80;;;30.30;30.60;;;;;;5062675;28;20473;-69
2022/05/11 13:25:44;;;;;;;4.25;2.90;;;30.40;29.30;;;;;;5064714;28;20626;-69
2022/05/11 13:28:12;;;;;;;2.60;2.40;;;30.60;30.00;;;;;;5061995;28;20431;-69
2022/05/11 13:30:44;;;;;;;3.65;2.60;;;30.70;29.10;;;;;;5065266;28;20526;-68
2022/05/11 13:33:44;;;;;;;5.00;2.83;;;30.90;29.00;;;;;;5067684;28;20868;-70
2022/05/11 13:36:16;;;;;;;2.60;2.40;;;31.20;28.40;;;;;;5066852;28;20455;-70
2022/05/11 13:38:55;;;;;;;3.97;2.33;;;31.40;28.40;;;;;;5065647;28;20485;-70
2022/05/11 13:41:26;;;;;;;3.10;2.30;;;31.40;27.70;;;;;;5067397;28;20453;-70
2022/05/11 13:43:55;;;;;;;3.53;2.20;;;31.30;28.90;;;;;;5065372;28;20423;-70
2022/05/11 13:49:27;;;;;;;5.40;2.28;;;31.30;27.80;;;;;;5065406;28;20426;-70
2022/05/11 13:51:53;;;;;;;4.72;2.50;;;31.40;26.10;;;;;;5076995;28;20435;-69
2022/05/11 13:54:24;;;;;;;2.70;1.80;;;31.00;25.80;;;;;;5067705;28;20423;-70